Погода Агиларесна 2 недели

Сан-Сальвадор, Сальвадор

26 февраля-10 марта
  • 26февраля
    Сегодня
    +22°
    +38°
    Ясно и безоблачно
    ВремяПогодаТемператураВлажностьДавлениеВетер, м/сВероятность осадков
    00:00Практически безоблачно+24°C60 %737 мм2.4 м/с2 %
    03:00Ясно и безоблачно+22°C68 %736 мм2.2 м/с2 %
    06:00Ясно и безоблачно+22°C74 %737 мм1.8 м/с2 %
    09:00Ясно и безоблачно+27°C48 %738 мм1.4 м/с2 %
    12:00Ясно и безоблачно+35°C22 %737 мм1.1 м/с2 %
    15:00Ясно и безоблачно+38°C18 %733 мм1.5 м/с2 %
    18:00Ясно и безоблачно+32°C41 %733 мм4.2 м/с2 %
    21:00Ясно и безоблачно+26°C55 %735 мм0.6 м/с2 %
  • 27февраля
    Вторник
    +23°
    +40°
    Ясно и безоблачно
    ВремяПогодаТемператураВлажностьДавлениеВетер, м/сВероятность осадков
    00:00Ясно и безоблачно+24°C60 %735 мм1.8 м/с2 %
    03:00Ясно и безоблачно+22°C67 %734 мм1.6 м/с2 %
    06:00Ясно и безоблачно+22°C76 %735 мм1.3 м/с2 %
    09:00Ясно и безоблачно+27°C50 %737 мм1.5 м/с2 %
    12:00Ясно и безоблачно+35°C25 %735 мм1.0 м/с2 %
    15:00Ясно и безоблачно+39°C17 %731 мм1.5 м/с2 %
    18:00Ясно и безоблачно+34°C38 %732 мм3.6 м/с2 %
    21:00Ясно и безоблачно+26°C54 %734 мм0.5 м/с2 %
  • 28февраля
    Среда
    +24°
    +40°
    Ясно и безоблачно
    ВремяПогодаТемператураВлажностьДавлениеВетер, м/сВероятность осадков
    00:00Ясно и безоблачно+24°C64 %734 мм1.0 м/с2 %
    03:00Ясно и безоблачно+23°C67 %733 мм1.3 м/с2 %
    06:00Ясно и безоблачно+24°C71 %734 мм1.1 м/с2 %
    09:00Ясно и безоблачно+29°C50 %736 мм0.9 м/с2 %
    12:00Ясно и безоблачно+36°C29 %735 мм1.3 м/с2 %
    15:00Ясно и безоблачно+40°C20 %732 мм2.4 м/с2 %
    18:00Ясно и безоблачно+34°C44 %732 мм3.5 м/с2 %
    21:00Ясно и безоблачно+27°C55 %734 мм0.6 м/с2 %
  • 29февраля
    Четверг
    +24°
    +39°
    Практически безоблачно
    ВремяПогодаТемператураВлажностьДавлениеВетер, м/сВероятность осадков
    00:00Ясно и безоблачно+25°C63 %735 мм1.3 м/с2 %
    03:00Ясно и безоблачно+25°C66 %734 мм1.1 м/с2 %
    06:00Ясно и безоблачно+25°C74 %736 мм0.9 м/с2 %
    09:00Ясно и безоблачно+30°C52 %737 мм0.9 м/с2 %
    12:00Ясно и безоблачно+36°C30 %735 мм1.7 м/с2 %
    15:00Практически безоблачно+39°C21 %732 мм1.7 м/с2 %
    18:00Практически безоблачно+35°C36 %733 мм3.0 м/с4 %
    21:00Ясно и безоблачно+28°C52 %735 мм0.5 м/с2 %
  • 01марта
    Пятница
    +24°
    +40°
    Ясно и безоблачно
    ВремяПогодаТемператураВлажностьДавлениеВетер, м/сВероятность осадков
    00:00Ясно и безоблачно+26°C61 %735 мм1.5 м/с2 %
    03:00Ясно и безоблачно+25°C65 %735 мм2.2 м/с2 %
    06:00Ясно и безоблачно+25°C65 %736 мм1.7 м/с2 %
    09:00Ясно и безоблачно+29°C48 %737 мм1.4 м/с2 %
    12:00Ясно и безоблачно+36°C27 %735 мм1.3 м/с2 %
    15:00Ясно и безоблачно+40°C20 %732 мм2.2 м/с2 %
    18:00Практически безоблачно+34°C43 %733 мм3.1 м/с2 %
    21:00Небольшая облачность+28°C55 %735 мм1.7 м/с2 %
Мы используем cookies
Соглашаюсь